Terminal Aerodrome Forecast
Issued by NWS

Home | Current Version | Previous Version | Text Only | Print | Product List | Glossary On
Versions: 1 2 3 4 5 6 7 8 9 10 11 12 13 14 15 16 17 18 19 20
000
FTUS43 KLSX 181700 RRA
TAFCPS
TAF
KCPS 181745Z 1818/1918 06004KT 5SM -SN BR BKN020 OVC050
      TEMPO 1818/1819 2SM -SN BR BKN012 OVC050
     FM182000 06003KT P6SM BKN020 OVC050
     FM190200 VRB03KT 5SM BR OVC015
     FM191000 VRB03KT 2SM BR OVC005
     FM191700 VRB03KT P6SM OVC012=

USA.gov is the U.S. government's official web portal to all federal, state and local government web resources and services.